Terminal Aerodrome Forecast
Issued by NWS

Home | Current Version | Previous Version | Text Only | Print | Product List | Glossary On
Versions: 1 2 3 4 5 6 7 8 9 10 11 12
000
FTUS45 KSLC 290531
TAFEVW
TAF
KEVW 290531Z 2906/3006 24013KT P6SM VCSH FEW100 BKN120
     FM290700 16006KT P6SM SCT080 BKN120
     FM291800 22011G18KT P6SM VCSH SCT060 BKN100
     FM300200 20009KT P6SM FEW060 BKN140=

USA.gov is the U.S. government's official web portal to all federal, state and local government web resources and services.